createdAt,value
2022-11-16T00:04:30.777Z,13.24
2022-11-16T00:10:02.412Z,13.17
2022-11-16T00:15:38.528Z,13.05
2022-11-16T00:21:10.418Z,12.99
2022-11-16T00:26:42.199Z,12.88
2022-11-16T00:32:13.667Z,12.86
2022-11-16T00:37:45.645Z,12.89
2022-11-16T00:43:17.144Z,12.84
2022-11-16T00:48:48.845Z,12.39
2022-11-16T00:54:20.600Z,12.62
2022-11-16T00:59:52.829Z,12.73
2022-11-16T01:05:24.158Z,12.64
2022-11-16T01:10:55.742Z,12.67
2022-11-16T01:16:32.345Z,12.28
2022-11-16T01:22:03.592Z,12.34
2022-11-16T01:27:35.490Z,12.16
2022-11-16T01:33:07.019Z,12.2
2022-11-16T01:38:38.799Z,12.29
2022-11-16T01:44:10.652Z,12.35
2022-11-16T01:49:42.429Z,12.37
2022-11-16T01:55:13.926Z,12.09
2022-11-16T02:00:45.828Z,11.97
2022-11-16T02:06:17.572Z,11.8
2022-11-16T02:11:49.439Z,11.89
2022-11-16T02:17:25.411Z,11.92
2022-11-16T02:22:57.184Z,12.15
2022-11-16T02:28:28.922Z,12.33
2022-11-16T02:34:00.687Z,12.1
2022-11-16T02:39:32.882Z,12.07
2022-11-16T02:45:03.839Z,12.27
2022-11-16T02:50:35.602Z,12.28
2022-11-16T02:56:07.319Z,12.43
2022-11-16T03:01:39.067Z,12.61
2022-11-16T03:07:10.919Z,12.75
2022-11-16T03:12:42.626Z,12.71
2022-11-16T03:18:18.810Z,12.57
2022-11-16T03:23:50.334Z,12.67
2022-11-16T03:29:22.191Z,12.65
2022-11-16T03:34:54.062Z,12.53
2022-11-16T03:40:25.486Z,12.31
2022-11-16T03:45:57.486Z,12.53
2022-11-16T03:51:28.961Z,12.43
2022-11-16T03:57:00.865Z,12.33
2022-11-16T04:02:32.382Z,12.51
2022-11-16T04:08:04.350Z,12.47
2022-11-16T04:13:35.961Z,12.46
2022-11-16T04:19:14.010Z,12.5
2022-11-16T04:24:45.856Z,12.51
2022-11-16T04:30:17.509Z,12.65
2022-11-16T04:35:49.413Z,12.78
2022-11-16T04:41:20.873Z,12.68
2022-11-16T04:46:52.672Z,12.81
2022-11-16T04:52:24.363Z,12.87
2022-11-16T04:57:56.658Z,12.91
2022-11-16T05:03:27.782Z,12.92
2022-11-16T05:08:59.475Z,12.97
2022-11-16T05:14:31.222Z,12.91
2022-11-16T05:20:09.559Z,12.95
2022-11-16T05:25:41.108Z,12.92
2022-11-16T05:31:13.072Z,12.95
2022-11-16T05:36:44.787Z,12.93
2022-11-16T05:42:16.422Z,12.94
2022-11-16T05:47:47.992Z,12.89
2022-11-16T05:53:19.671Z,12.87
2022-11-16T05:58:51.433Z,12.78
2022-11-16T06:04:23.190Z,12.75
2022-11-16T06:09:55.032Z,12.7
2022-11-16T06:15:26.927Z,12.67
2022-11-16T06:21:05.437Z,12.65
2022-11-16T06:26:36.454Z,12.47
2022-11-16T06:32:08.376Z,12.51
2022-11-16T06:37:39.888Z,12.38
2022-11-16T06:43:11.892Z,12.37
2022-11-16T06:48:43.297Z,12.36
2022-11-16T06:54:14.992Z,12.41
2022-11-16T06:59:46.752Z,12.4
2022-11-16T07:05:18.755Z,12.46
2022-11-16T07:10:50.519Z,12.33
2022-11-16T07:16:22.268Z,12.52
2022-11-16T07:21:58.041Z,12.6
2022-11-16T07:27:29.921Z,12.57
2022-11-16T07:33:01.730Z,12.51
2022-11-16T07:38:33.584Z,12.49
2022-11-16T07:44:07.355Z,12.36
2022-11-16T07:49:37.322Z,12.28
2022-11-16T07:55:08.431Z,12.34
2022-11-16T08:00:40.140Z,12.31
2022-11-16T08:06:11.891Z,12.14
2022-11-16T08:11:43.903Z,12.01
2022-11-16T08:17:15.305Z,12.27
2022-11-16T08:22:54.776Z,12.27
2022-11-16T08:28:25.116Z,12.19
2022-11-16T08:33:57.157Z,12.54
2022-11-16T08:39:28.656Z,12.67
2022-11-16T08:45:01.566Z,12.58
2022-11-16T08:50:39.813Z,12.66
2022-11-16T08:56:03.772Z,12.72
2022-11-16T09:01:35.522Z,12.84
2022-11-16T09:07:07.269Z,12.97
2022-11-16T09:12:38.953Z,12.77
2022-11-16T09:18:10.970Z,13.05
2022-11-16T09:23:46.828Z,13.14
2022-11-16T09:29:19.324Z,13.03
2022-11-16T09:34:50.259Z,13.22
2022-11-16T09:40:22.370Z,13.26
2022-11-16T09:45:54.287Z,13.36
2022-11-16T09:51:25.701Z,13.27
2022-11-16T09:56:57.483Z,13.28
2022-11-16T10:02:29.097Z,13.53
2022-11-16T10:08:00.634Z,13.7
2022-11-16T10:13:32.704Z,13.67
2022-11-16T10:19:04.021Z,13.7
2022-11-16T10:24:40.153Z,13.69
2022-11-16T10:30:11.911Z,13.52
2022-11-16T10:35:43.776Z,13.3
2022-11-16T10:41:15.843Z,13.62
2022-11-16T10:46:47.059Z,13.88
2022-11-16T10:52:18.855Z,14.13
2022-11-16T10:57:50.792Z,13.91
2022-11-16T11:03:22.519Z,14.12
2022-11-16T11:08:53.955Z,14.25
2022-11-16T11:14:25.674Z,14.25
2022-11-16T11:19:57.642Z,14.15
2022-11-16T11:25:33.694Z,14.2
2022-11-16T11:31:05.247Z,14.23
2022-11-16T11:36:37.600Z,14.15
2022-11-16T11:42:08.863Z,14.35
2022-11-16T11:47:57.744Z,14.37
2022-11-16T11:53:12.130Z,14.83
2022-11-16T11:58:43.825Z,14.94
2022-11-16T12:04:15.797Z,14.97
2022-11-16T12:09:47.547Z,15.25
2022-11-16T12:15:19.017Z,15.55
2022-11-16T12:20:50.798Z,15.48
2022-11-16T12:26:29.930Z,15.73
2022-11-16T12:32:00.930Z,15.65
2022-11-16T12:37:32.353Z,15.36
2022-11-16T12:43:04.102Z,15.37
2022-11-16T12:48:35.838Z,15.49
2022-11-16T12:54:07.744Z,16.03
2022-11-16T12:59:39.294Z,15.51
2022-11-16T13:05:11.460Z,15.81
2022-11-16T13:10:43.353Z,15.6
2022-11-16T13:16:14.402Z,15.37
2022-11-16T13:21:46.127Z,15.42
2022-11-16T13:27:24.289Z,15.17
2022-11-16T13:32:56.268Z,15.25
2022-11-16T13:38:27.705Z,15.32
2022-11-16T13:44:00.107Z,15.42
2022-11-16T13:49:31.205Z,15.48
2022-11-16T13:55:03.399Z,15.51
2022-11-16T14:00:34.814Z,15.47
2022-11-16T14:06:06.351Z,15.44
2022-11-16T14:11:38.258Z,15.5
2022-11-16T14:17:09.858Z,15.54
2022-11-16T14:22:41.770Z,15.69
2022-11-16T14:28:17.634Z,15.21
2022-11-16T14:33:49.350Z,15.18
2022-11-16T14:39:21.082Z,15.26
2022-11-16T14:44:52.786Z,15.09
2022-11-16T14:50:24.749Z,15.16
2022-11-16T14:55:56.333Z,15.16
2022-11-16T15:01:28.133Z,15.07
2022-11-16T15:07:00.017Z,14.97
2022-11-16T15:12:31.488Z,14.98
2022-11-16T15:18:03.161Z,14.97
2022-11-16T15:23:35.108Z,14.9
2022-11-16T15:29:11.018Z,14.81
2022-11-16T15:34:42.820Z,14.71
2022-11-16T15:40:14.431Z,14.42
2022-11-16T15:45:46.175Z,14.44
2022-11-16T15:51:17.909Z,14.34
2022-11-16T15:56:49.701Z,14.18
2022-11-16T16:02:21.521Z,14.07
2022-11-16T16:07:53.238Z,13.92
2022-11-16T16:13:24.882Z,13.76
2022-11-16T16:18:56.602Z,13.6
2022-11-16T16:24:28.215Z,13.43
2022-11-16T16:30:06.514Z,13.35
2022-11-16T16:35:38.389Z,13.23
2022-11-16T16:41:09.821Z,13.17
2022-11-16T16:46:41.669Z,13.13
2022-11-16T16:52:13.294Z,13.02
2022-11-16T16:57:45.026Z,12.86
2022-11-16T17:03:16.726Z,12.93
2022-11-16T17:08:48.617Z,12.84
2022-11-16T17:14:20.355Z,12.83
2022-11-16T17:19:52.106Z,12.7
2022-11-16T17:25:23.609Z,12.63
2022-11-16T17:31:00.893Z,12.7
2022-11-16T17:36:32.369Z,12.66
2022-11-16T17:42:04.220Z,12.81
2022-11-16T17:47:35.921Z,12.82
2022-11-16T17:53:07.635Z,12.85
2022-11-16T17:58:39.372Z,12.96
2022-11-16T18:04:11.200Z,13.01
2022-11-16T18:09:43.039Z,12.95
2022-11-16T18:15:27.825Z,13.01
2022-11-16T18:20:46.217Z,12.69
2022-11-16T18:26:18.075Z,12.87
2022-11-16T18:31:54.215Z,12.85
2022-11-16T18:37:25.975Z,12.83
2022-11-16T18:42:57.612Z,12.72
2022-11-16T18:48:29.265Z,12.76
2022-11-16T18:54:01.205Z,12.64
2022-11-16T18:59:32.898Z,12.4
2022-11-16T19:05:04.455Z,12.29
2022-11-16T19:10:36.243Z,12.07
2022-11-16T19:16:07.998Z,12.1
2022-11-16T19:21:39.774Z,12.22
2022-11-16T19:27:11.354Z,12.16
2022-11-16T19:32:49.922Z,11.87
2022-11-16T19:38:21.188Z,12.09
2022-11-16T19:43:53.034Z,12.11
2022-11-16T19:49:24.818Z,12.08
2022-11-16T19:54:56.447Z,12.06
2022-11-16T20:00:28.107Z,11.84
2022-11-16T20:05:59.804Z,11.79
2022-11-16T20:11:31.679Z,11.79
2022-11-16T20:17:03.309Z,11.81
2022-11-16T20:22:35.004Z,11.7
2022-11-16T20:28:06.889Z,11.37
2022-11-16T20:33:43.237Z,11.5
2022-11-16T20:39:14.667Z,11.4
2022-11-16T20:44:46.503Z,11.36
2022-11-16T20:50:18.768Z,11.45
2022-11-16T20:55:49.896Z,11.51
2022-11-16T21:01:21.664Z,11.45
2022-11-16T21:06:53.570Z,11.36
2022-11-16T21:12:25.112Z,11.45
2022-11-16T21:17:56.904Z,11.18
2022-11-16T21:23:28.925Z,11.19
2022-11-16T21:29:00.233Z,11.22
2022-11-16T21:34:40.210Z,11.15
2022-11-16T21:40:10.045Z,11.28
2022-11-16T21:45:41.980Z,11.07
2022-11-16T21:51:13.792Z,11.17
2022-11-16T21:56:45.436Z,11.08
2022-11-16T22:02:16.949Z,11.13
2022-11-16T22:07:48.699Z,11.26
2022-11-16T22:13:20.541Z,11.28
2022-11-16T22:18:52.115Z,11.32
2022-11-16T22:24:23.864Z,11.33
2022-11-16T22:29:55.573Z,11.28
2022-11-16T22:35:33.960Z,11.23
2022-11-16T22:41:06.154Z,11.09
2022-11-16T22:46:37.339Z,11.13
2022-11-16T22:52:09.142Z,11.1
2022-11-16T22:57:40.540Z,11.08
2022-11-16T23:03:12.661Z,11.06
2022-11-16T23:08:44.494Z,11.04
2022-11-16T23:14:15.782Z,11.22
2022-11-16T23:19:47.501Z,11.25
2022-11-16T23:25:19.267Z,11.36
2022-11-16T23:30:51.322Z,11.36
2022-11-16T23:36:27.052Z,11.41
2022-11-16T23:41:58.808Z,11.43
2022-11-16T23:47:30.483Z,11.41
2022-11-16T23:53:02.254Z,11.39
2022-11-16T23:58:33.936Z,11.24
